To NAV CANADA Home Page Login to a new session Search on AWWS site Feedback and Comments Disclaimer Vers la page française équivalente Tips FAQ What's new on the site To the Forecasts and Observations / NOTAM section To "File a Flight Plan" website Publications and other links Update of the User's profile FIC Telephone Numbers My Weather Data Folder Route Weather Data Regional Weather Data Local Weather Data To the Forecasts and Observations / NOTAM section
Request Generated 03/30/2015 at 14:10:01 UTC . Weather information available at that time is displayed.

METAR/TAF

If you find any discrepancies between the coded METAR/TAF and the plain language METAR/TAF please use the coded METAR/TAF. LWIS bulletins are not decoded in plain language.

VANCOUVER/VANCOUVER INTL/BC    

METAR CYVR 301400Z 09010KT 15SM FEW015 FEW025 SCT035 OVC110 10/09 A3003 RMK SC1SF1SC1AC5 SLP170=
METAR
LOCATION
CYVR - VANCOUVER/VANCOUVER INTL/BC
DATE - TIME
30 MARCH 2015 - 1400 UTC
WIND
90 TRUE @ 10  KNOTS
VISIBILITY
15 STAT.  MILES
RUNWAY VISUAL RANGE
WEATHER
CLOUDINESS
FEW CLOUDS (1/8 - 2/8) 1500  FT
FEW CLOUDS (1/8 - 2/8) 2500  FT
SCATTERED CLOUDS (3/8 - 4/8) 3500  FT
OVERCAST 11000  FT
TEMP / DEWPOINT
10 C / 9 C
ALTIMETER
30.03 IN HG
RECENT WEATHER
WIND SHEAR

METAR CYVR 301300Z 10007KT 15SM BKN036 BKN078 OVC100 10/09 A3005 RMK SC5AC1AC2 SLP177=
METAR
LOCATION
CYVR - VANCOUVER/VANCOUVER INTL/BC
DATE - TIME
30 MARCH 2015 - 1300 UTC
WIND
100 TRUE @ 7  KNOTS
VISIBILITY
15 STAT.  MILES
RUNWAY VISUAL RANGE
WEATHER
CLOUDINESS
BROKEN CLOUDS (5/8 - 7/8) 3600  FT
BROKEN CLOUDS (5/8 - 7/8) 7800  FT
OVERCAST 10000  FT
TEMP / DEWPOINT
10 C / 9 C
ALTIMETER
30.05 IN HG
RECENT WEATHER
WIND SHEAR

METAR CYVR 301200Z 09010KT 15SM FEW036 BKN062 OVC100 10/09 A3005 RMK SC2SC3AC3 SLP176=
METAR
LOCATION
CYVR - VANCOUVER/VANCOUVER INTL/BC
DATE - TIME
30 MARCH 2015 - 1200 UTC
WIND
90 TRUE @ 10  KNOTS
VISIBILITY
15 STAT.  MILES
RUNWAY VISUAL RANGE
WEATHER
CLOUDINESS
FEW CLOUDS (1/8 - 2/8) 3600  FT
BROKEN CLOUDS (5/8 - 7/8) 6200  FT
OVERCAST 10000  FT
TEMP / DEWPOINT
10 C / 9 C
ALTIMETER
30.05 IN HG
RECENT WEATHER
WIND SHEAR

TAF CYVR 301141Z 3012/3118 09010KT P6SM FEW015 BKN030 OVC080 TEMPO 3012/3019 4SM SHRA BR FEW006 BKN015 OVC030 PROB30 3012/3019 2SM SHRA BR BKN006 OVC015 FM301900 09010KT P6SM SCT015 BKN040 OVC160 TEMPO 3019/3105 P6SM -SHRA FM310500 11010KT P6SM -RA SCT015 OVC030 TEMPO 3105/3109 2SM SHRA BR SCT006 OVC015 BECMG 3107/3109 27010KT FM310900 27010KT P6SM SCT050 TEMPO 3109/3118 BKN050 BECMG 3110/3112 28012G22KT RMK NXT FCST BY 301500Z=
TAF
LOCATION

CYVR - VANCOUVER/VANCOUVER INTL/BC
VALIDITY [UTC]
30 MAR - 1141 to
31 MAR - 1800
 
TIMES
[UTC]
WIND
[DEGREES TRUE]
VISIBILITY
[STAT. MILES]
WEATHER
CLOUDINESS
[FEET AGL]
 
30 MAR - 1200 to
30 MAR - 1900
90 @ 10 KNOTS
6+
NIL
1500 FEW
8000 FEW
3000 BROKEN
8000 OVERCAST
TEMPORARY CHANGES
30 MAR - 1200 to
30 MAR - 1900
 
4
MODERATE RAIN SHOWER
MIST
600 FEW
3000 FEW
1500 BROKEN
3000 OVERCAST
30% PROBABILITY
30 MAR - 1200 to
30 MAR - 1900
 
2
MODERATE RAIN SHOWER
MIST
600 BROKEN
1500 OVERCAST
 
30 MAR - 1900 to
31 MAR - 0500
90 @ 10 KNOTS
6+
NIL
1500 SCATTERED
4000 BROKEN
16000 OVERCAST
TEMPORARY CHANGES
30 MAR - 1900 to
31 MAR - 0500
 
6+
LIGHT RAIN SHOWER
 
 
31 MAR - 0500 to
31 MAR - 0900
110 @ 10 KNOTS
6+
LIGHT RAIN
1500 SCATTERED
3000 OVERCAST
TEMPORARY CHANGES
31 MAR - 0500 to
31 MAR - 0900
 
2
MODERATE RAIN SHOWER
MIST
600 SCATTERED
1500 OVERCAST
BECOMING
31 MAR - 0700 to
31 MAR - 0900
270 @ 10 KNOTS
 
 
 
 
31 MAR - 0900 to
31 MAR - 1800
270 @ 10 KNOTS
6+
NIL
5000 SCATTERED
TEMPORARY CHANGES
31 MAR - 0900 to
31 MAR - 1800
 
 
 
5000 BROKEN
BECOMING
31 MAR - 1000 to
31 MAR - 1200
280 @ 12 KNOTS
GUSTS 22 KNOTS
 
 
 
REMARKS
THE NEXT FORECAST WILL BE ISSUED BY 1500 UTC ON DAY 30


Your time UTC time
Weather data provided by Environment Canada and NAV CANADA